Aviation Forecast - National Meteorological Service of Belize
Hurricane Tips
  •  Fill sinks, bathtub and large containers with water as an extra supply for washing and flushing.
  •  During the hurricane season, fisher folks are strongly advised to stay informed via radio, listen to the weather bulletin before venturing out to sea. Move your boat to safe harbor early.
  •  Prepare your car in case of evacuation. Fill your tank and check your tires.
  •  Upon alert, farmers should harvest crops which can be stored, consumed and sold.
 Saturday, May 19, 2018     |     Print Forecast

From 1200, May 19, 2018   |   To 2400, May 19, 2018

All Heights in the forecast are above sea level. PS= Positive, MS= Minus. All times are UTC.

WARM AND GENERALLY FAIR WEATHER PREVAILS...
Height (ft) Wind (True Degrees and Knots) Temperature (°C)
Surface 10010 PS 31-34
2,000 11515 PS 22
5,000 11515 PS 18
10,000 00505 PS 10
ISOL/FEW CB BASES 1,000-1,200FT
SCT/BKN CU BASES 1,500FT-2,400FT
GREATER THAN 10KM. REDUCED TO 3-8KM IN SHRA/TSRA AND 400M IN HILL FOG.
SUNNY WITH CLOUDY SPELLS AND ISOLATED SHOWERS OR THUNDERSTORMS. SLIGHTLY MORE WILL AFFECT INLAND AND SOUTHERN AREAS THIS AFTERNOON.
LOW CLOUDS COVERING HILLS. MOD TURB NEAR SFC AND IN TCU/CB.
RISING
UP TO 12Z 20TH MAY: PARTLY CLOUDY WITH ISOLATED SHOWERS OR THUNDERSTORMS
190900Z 1912/2012 10010KT 9999 SCT023 PROB30 TEMPO 1912/1921 5000 SHRA BKN015=
Belize
05:30 May 19, 2018

Forecaster: Wellington, Francisca

Updated at: May 19, 2018 05:31 AM